Погода Аверьяновкана неделю

Республика Дагестан, Россия

26 мая-01 июня
  • 26мая
    Сегодня
    +14°
    +22°
    Небольшая облачность
    ВремяПогодаТемператураВлажностьДавлениеВетер, м/сВероятность осадков
    00:00Ясно и безоблачно+15°C54 %764 мм7.0 м/с2 %
    03:00Небольшая облачность+15°C57 %763 мм7.8 м/с2 %
    06:00Небольшая облачность+17°C56 %763 мм7.7 м/с5 %
    09:00Небольшая облачность+20°C52 %761 мм10.2 м/с12 %
    12:00Облачно с прояснениями+21°C44 %761 мм10.5 м/с10 %
    15:00Небольшая облачность+21°C43 %761 мм9.5 м/с6 %
    18:00Облачно с прояснениями+19°C53 %761 мм6.7 м/с4 %
    21:00Небольшая облачность+16°C60 %762 мм4.0 м/с7 %
  • 27мая
    Понедельник
    +14°
    +25°
    Ясно и безоблачно
    ВремяПогодаТемператураВлажностьДавлениеВетер, м/сВероятность осадков
    00:00Небольшая облачность+16°C61 %762 мм2.8 м/с11 %
    03:00Практически безоблачно+15°C71 %762 мм1.9 м/с7 %
    06:00Облачно с прояснениями+16°C70 %763 мм1.9 м/с5 %
    09:00Небольшая облачность+20°C49 %764 мм1.8 м/с6 %
    12:00Ясно и безоблачно+24°C31 %764 мм4.5 м/с5 %
    15:00Ясно и безоблачно+24°C29 %764 мм6.8 м/с5 %
    18:00Ясно и безоблачно+22°C33 %764 мм5.6 м/с2 %
    21:00Ясно и безоблачно+16°C50 %765 мм2.9 м/с2 %
  • 28мая
    Вторник
    +15°
    +27°
    Облачно с прояснениями
    ВремяПогодаТемператураВлажностьДавлениеВетер, м/сВероятность осадков
    00:00Ясно и безоблачно+15°C61 %764 мм3.1 м/с2 %
    03:00Ясно и безоблачно+14°C76 %764 мм2.9 м/с2 %
    06:00Ясно и безоблачно+17°C74 %764 мм3.8 м/с2 %
    09:00Облачно с прояснениями+25°C37 %764 мм7.7 м/с2 %
    12:00Облачно с прояснениями+26°C22 %763 мм8.9 м/с3 %
    15:00Облачно с прояснениями+26°C21 %763 мм8.8 м/с3 %
    18:00Облачно с прояснениями+23°C31 %763 мм6.4 м/с2 %
    21:00Облачно с прояснениями+18°C59 %763 мм4.1 м/с2 %
  • 29мая
    Среда
    +14°
    +29°
    Ясно и безоблачно
    ВремяПогодаТемператураВлажностьДавлениеВетер, м/сВероятность осадков
    00:00Ясно и безоблачно+17°C85 %761 мм3.5 м/с2 %
    03:00Ясно и безоблачно+15°C92 %760 мм2.6 м/с2 %
    06:00Ясно и безоблачно+17°C81 %760 мм2.9 м/с2 %
    09:00Практически безоблачно+26°C28 %759 мм6.2 м/с2 %
    12:00Ясно и безоблачно+28°C22 %758 мм7.9 м/с2 %
    15:00Ясно и безоблачно+27°C25 %757 мм7.9 м/с2 %
    18:00Ясно и безоблачно+24°C38 %758 мм5.4 м/с2 %
    21:00Ясно и безоблачно+17°C65 %759 мм2.0 м/с2 %
  • 30мая
    Четверг
    +16°
    +31°
    Практически безоблачно
    ВремяПогодаТемператураВлажностьДавлениеВетер, м/сВероятность осадков
    00:00Ясно и безоблачно+16°C88 %759 мм1.4 м/с2 %
    03:00Ясно и безоблачно+15°C96 %759 мм1.5 м/с3 %
    06:00Ясно и безоблачно+17°C88 %759 мм1.6 м/с3 %
    09:00Ясно и безоблачно+24°C53 %759 мм1.7 м/с3 %
    12:00Ясно и безоблачно+28°C35 %758 мм3.3 м/с2 %
    15:00Практически безоблачно+30°C34 %757 мм4.7 м/с2 %
    18:00Облачно с прояснениями+26°C46 %758 мм5.4 м/с2 %
    21:00Облачно с прояснениями+20°C67 %759 мм2.5 м/с2 %
Мы используем cookies
Соглашаюсь